createdAt,value
2023-04-22T00:00:30.224Z,59.68
2023-04-22T00:02:56.695Z,59.77
2023-04-22T00:05:23.260Z,60.56
2023-04-22T00:07:49.879Z,61.77
2023-04-22T00:10:16.268Z,62.21
2023-04-22T00:12:42.708Z,62.85
2023-04-22T00:15:09.127Z,62.51
2023-04-22T00:17:35.539Z,63.24
2023-04-22T00:20:01.958Z,62.50
2023-04-22T00:22:28.462Z,62.10
2023-04-22T00:24:54.890Z,62.28
2023-04-22T00:27:21.283Z,62.81
2023-04-22T00:29:47.655Z,63.46
2023-04-22T00:32:14.026Z,64.44
2023-04-22T00:34:40.437Z,64.05
2023-04-22T00:37:06.831Z,63.83
2023-04-22T00:39:33.236Z,64.52
2023-04-22T00:41:59.636Z,64.44
2023-04-22T00:44:26.016Z,64.23
2023-04-22T00:46:52.412Z,63.58
2023-04-22T00:49:18.814Z,63.64
2023-04-22T00:51:45.198Z,64.25
2023-04-22T00:54:11.602Z,64.26
2023-04-22T00:56:38.002Z,64.34
2023-04-22T00:59:04.430Z,64.63
2023-04-22T01:01:30.975Z,64.40
2023-04-22T01:03:57.826Z,63.94
2023-04-22T01:06:24.318Z,63.44
2023-04-22T01:08:50.690Z,64.62
2023-04-22T01:11:17.092Z,63.84
2023-04-22T01:13:43.778Z,62.91
2023-04-22T01:16:10.326Z,64.34
2023-04-22T01:18:36.768Z,64.57
2023-04-22T01:21:03.179Z,64.47
2023-04-22T01:23:29.562Z,64.03
2023-04-22T01:25:55.940Z,64.89
2023-04-22T01:28:22.460Z,65.41
2023-04-22T01:30:48.879Z,65.30
2023-04-22T01:33:15.296Z,64.49
2023-04-22T01:35:41.829Z,64.67
2023-04-22T01:38:08.203Z,63.63
2023-04-22T01:40:34.607Z,63.42
2023-04-22T01:43:00.986Z,63.42
2023-04-22T01:45:27.486Z,63.86
2023-04-22T01:47:53.995Z,65.48
2023-04-22T01:50:20.433Z,66.42
2023-04-22T01:52:46.848Z,66.67
2023-04-22T01:55:13.260Z,66.29
2023-04-22T01:57:39.683Z,66.70
2023-04-22T02:00:06.090Z,66.66
2023-04-22T02:02:32.567Z,66.05
2023-04-22T02:04:59.043Z,65.93
2023-04-22T02:07:25.508Z,66.35
2023-04-22T02:09:51.939Z,65.48
2023-04-22T02:12:18.335Z,66.25
2023-04-22T02:14:44.722Z,66.45
2023-04-22T02:17:11.141Z,65.58
2023-04-22T02:19:37.964Z,65.54
2023-04-22T02:22:04.761Z,65.95
2023-04-22T02:24:31.171Z,64.87
2023-04-22T02:26:57.560Z,64.65
2023-04-22T02:29:23.919Z,64.44
2023-04-22T02:31:50.536Z,64.69
2023-04-22T02:34:16.984Z,64.92
2023-04-22T02:36:43.407Z,66.30
2023-04-22T02:39:09.834Z,65.83
2023-04-22T02:41:36.205Z,65.52
2023-04-22T02:44:02.648Z,65.63
2023-04-22T02:46:29.246Z,66.26
2023-04-22T02:48:55.784Z,67.05
2023-04-22T02:51:22.170Z,67.31
2023-04-22T02:53:48.569Z,66.66
2023-04-22T02:56:14.970Z,66.29
2023-04-22T02:58:41.358Z,66.30
2023-04-22T03:01:07.765Z,66.24
2023-04-22T03:03:34.335Z,65.96
2023-04-22T03:06:00.817Z,66.28
2023-04-22T03:08:27.233Z,66.70
2023-04-22T03:10:53.604Z,66.58
2023-04-22T03:13:19.974Z,66.44
2023-04-22T03:15:46.420Z,65.88
2023-04-22T03:18:12.804Z,65.25
2023-04-22T03:20:39.170Z,64.83
2023-04-22T03:23:05.552Z,65.75
2023-04-22T03:25:31.943Z,64.96
2023-04-22T03:27:58.599Z,65.65
2023-04-22T03:30:25.064Z,65.91
2023-04-22T03:32:51.507Z,65.60
2023-04-22T03:35:17.897Z,65.83
2023-04-22T03:37:44.309Z,64.46
2023-04-22T03:42:37.281Z,64.03
2023-04-22T03:45:03.693Z,63.51
2023-04-22T03:47:30.147Z,63.38
2023-04-22T03:49:56.615Z,63.53
2023-04-22T03:52:22.993Z,63.71
2023-04-22T03:54:49.431Z,64.68
2023-04-22T03:57:15.845Z,64.44
2023-04-22T03:59:42.402Z,63.95
2023-04-22T04:02:09.212Z,63.60
2023-04-22T04:04:35.911Z,64.30
2023-04-22T04:07:02.633Z,64.73
2023-04-22T04:09:29.037Z,65.08
2023-04-22T04:11:55.437Z,65.25
2023-04-22T04:14:21.823Z,65.04
2023-04-22T04:16:48.207Z,64.62
2023-04-22T04:19:14.615Z,64.82
2023-04-22T04:21:41.009Z,64.26
2023-04-22T04:24:07.432Z,63.87
2023-04-22T04:26:33.852Z,64.51
2023-04-22T04:29:00.332Z,64.45
2023-04-22T04:31:26.797Z,64.37
2023-04-22T04:33:53.278Z,64.68
2023-04-22T04:36:19.670Z,64.13
2023-04-22T04:38:46.073Z,64.77
2023-04-22T04:41:12.475Z,65.68
2023-04-22T04:43:38.992Z,64.80
2023-04-22T04:46:05.437Z,64.74
2023-04-22T04:48:31.868Z,65.64
2023-04-22T04:50:58.316Z,64.68
2023-04-22T04:53:24.700Z,63.77
2023-04-22T04:55:51.090Z,64.29
2023-04-22T04:58:17.565Z,63.98
2023-04-22T05:00:43.982Z,63.60
2023-04-22T05:03:10.579Z,64.33
2023-04-22T05:05:37.100Z,64.42
2023-04-22T05:08:03.536Z,65.87
2023-04-22T05:10:29.914Z,65.38
2023-04-22T05:12:56.335Z,66.38
2023-04-22T05:15:22.763Z,67.22
2023-04-22T05:17:49.182Z,67.00
2023-04-22T05:20:15.690Z,66.89
2023-04-22T05:22:42.138Z,65.39
2023-04-22T05:25:08.608Z,64.52
2023-04-22T05:27:35.012Z,65.15
2023-04-22T05:30:01.392Z,63.87
2023-04-22T05:32:28.010Z,63.19
2023-04-22T05:34:54.542Z,63.23
2023-04-22T05:37:20.976Z,64.10
2023-04-22T05:39:47.399Z,64.09
2023-04-22T05:42:13.826Z,64.21
2023-04-22T05:44:40.200Z,64.08
2023-04-22T05:47:06.582Z,63.96
2023-04-22T05:49:33.045Z,63.46
2023-04-22T05:51:59.409Z,64.30
2023-04-22T05:54:25.815Z,64.62
2023-04-22T05:56:52.246Z,64.12
2023-04-22T05:59:19.708Z,63.29
2023-04-22T06:01:48.033Z,62.76
2023-04-22T06:04:14.573Z,61.65
2023-04-22T06:06:41.209Z,61.58
2023-04-22T06:09:07.627Z,60.66
2023-04-22T06:11:34.203Z,60.73
2023-04-22T06:14:00.607Z,60.78
2023-04-22T06:16:27.105Z,60.62
2023-04-22T06:18:53.494Z,60.21
2023-04-22T06:21:20.002Z,60.02
2023-04-22T06:23:46.444Z,59.81
2023-04-22T06:26:12.853Z,60.24
2023-04-22T06:28:39.254Z,60.55
2023-04-22T06:31:05.678Z,60.67
2023-04-22T06:33:32.416Z,59.53
2023-04-22T06:35:58.870Z,59.53
2023-04-22T06:38:25.288Z,59.84
2023-04-22T06:40:51.731Z,59.82
2023-04-22T06:43:18.131Z,60.04
2023-04-22T06:45:44.520Z,60.30
2023-04-22T06:48:10.939Z,60.02
2023-04-22T06:50:37.335Z,60.78
2023-04-22T06:53:03.759Z,60.92
2023-04-22T06:55:30.258Z,61.10
2023-04-22T06:57:56.639Z,60.69
2023-04-22T07:00:23.184Z,60.92
2023-04-22T07:02:49.710Z,61.48
2023-04-22T07:05:16.148Z,61.72
2023-04-22T07:07:42.532Z,61.71
2023-04-22T07:10:08.923Z,61.33
2023-04-22T07:12:35.558Z,60.53
2023-04-22T07:15:02.140Z,60.75
2023-04-22T07:17:28.497Z,59.49
2023-04-22T07:19:54.906Z,60.54
2023-04-22T07:22:21.291Z,61.51
2023-04-22T07:24:47.699Z,60.57
2023-04-22T07:27:14.086Z,58.86
2023-04-22T07:29:40.700Z,58.31
2023-04-22T07:32:07.318Z,58.70
2023-04-22T07:34:33.840Z,57.73
2023-04-22T07:37:00.244Z,58.10
2023-04-22T07:39:26.856Z,57.62
2023-04-22T07:41:53.294Z,57.45
2023-04-22T07:44:19.693Z,56.69
2023-04-22T07:46:46.095Z,57.01
2023-04-22T07:49:12.529Z,56.88
2023-04-22T07:51:38.913Z,56.57
2023-04-22T07:54:05.305Z,57.16
2023-04-22T07:56:31.711Z,58.26
2023-04-22T07:58:58.175Z,58.66
2023-04-22T08:01:24.674Z,59.25
2023-04-22T08:03:51.441Z,59.22
2023-04-22T08:06:18.189Z,60.08
2023-04-22T08:08:44.599Z,59.60
2023-04-22T08:11:11.071Z,59.29
2023-04-22T08:13:37.502Z,59.27
2023-04-22T08:16:03.960Z,59.78
2023-04-22T08:18:30.372Z,59.16
2023-04-22T08:20:56.959Z,59.91
2023-04-22T08:23:23.731Z,60.21
2023-04-22T08:25:50.169Z,59.99
2023-04-22T08:28:16.651Z,59.92
2023-04-22T08:30:43.539Z,59.87
2023-04-22T08:33:10.215Z,60.17
2023-04-22T08:35:36.826Z,60.92
2023-04-22T08:38:03.301Z,60.81
2023-04-22T08:40:29.683Z,61.41
2023-04-22T08:42:57.718Z,59.02
2023-04-22T08:45:24.494Z,59.04
2023-04-22T08:50:31.362Z,57.86
2023-04-22T08:52:58.052Z,59.09
2023-04-22T08:55:24.775Z,59.11
2023-04-22T08:57:51.218Z,58.92
2023-04-22T09:00:17.894Z,58.29
2023-04-22T09:02:47.539Z,58.35
2023-04-22T09:05:13.993Z,57.83
2023-04-22T09:07:40.506Z,57.97
2023-04-22T09:10:06.908Z,58.37
2023-04-22T09:12:34.639Z,58.57
2023-04-22T09:15:01.042Z,59.64
2023-04-22T09:17:27.508Z,58.63
2023-04-22T09:19:53.923Z,60.30
2023-04-22T09:22:20.614Z,60.66
2023-04-22T09:24:47.072Z,59.68
2023-04-22T09:27:14.703Z,59.91
2023-04-22T09:29:41.422Z,59.58
2023-04-22T09:32:08.207Z,59.43
2023-04-22T09:34:34.832Z,59.68
2023-04-22T09:37:02.858Z,59.83
2023-04-22T09:39:29.275Z,61.71
2023-04-22T09:41:55.865Z,63.90
2023-04-22T09:44:22.396Z,64.42
2023-04-22T09:46:48.809Z,63.80
2023-04-22T09:49:15.243Z,64.87
2023-04-22T09:51:41.624Z,64.29
2023-04-22T09:54:08.063Z,62.93
2023-04-22T09:56:34.553Z,62.84
2023-04-22T09:59:04.077Z,62.45
2023-04-22T10:01:30.647Z,62.58
2023-04-22T10:03:57.081Z,62.00
2023-04-22T10:06:23.461Z,61.95
2023-04-22T10:08:49.954Z,62.42
2023-04-22T10:11:16.526Z,62.70
2023-04-22T10:13:43.037Z,62.24
2023-04-22T10:16:09.639Z,62.99
2023-04-22T10:18:36.165Z,62.39
2023-04-22T10:21:02.835Z,61.81
2023-04-22T10:23:29.344Z,62.08
2023-04-22T10:25:55.742Z,60.95
2023-04-22T10:28:22.329Z,63.16
2023-04-22T10:30:50.112Z,62.10
2023-04-22T10:33:16.523Z,61.84
2023-04-22T10:35:43.007Z,62.60
2023-04-22T10:38:09.465Z,61.75
2023-04-22T10:40:35.923Z,61.12
2023-04-22T10:43:02.442Z,60.73
2023-04-22T10:45:28.862Z,59.47
2023-04-22T10:47:55.347Z,59.50
2023-04-22T10:50:21.819Z,60.21
2023-04-22T10:52:48.223Z,60.37
2023-04-22T10:55:14.801Z,61.28
2023-04-22T10:57:41.310Z,60.66
2023-04-22T11:00:07.887Z,61.38
2023-04-22T11:02:34.344Z,60.42
2023-04-22T11:05:00.888Z,61.50
2023-04-22T11:07:27.318Z,61.55
2023-04-22T11:09:53.906Z,61.46
2023-04-22T11:12:20.321Z,61.97
2023-04-22T11:14:46.877Z,60.73
2023-04-22T11:17:13.343Z,60.03
2023-04-22T11:19:39.918Z,60.67
2023-04-22T11:22:06.558Z,60.53
2023-04-22T11:24:32.978Z,60.00
2023-04-22T11:27:01.243Z,58.10
2023-04-22T11:29:27.719Z,56.21
2023-04-22T11:31:54.169Z,55.32
2023-04-22T11:34:20.579Z,54.97
2023-04-22T11:36:47.024Z,55.25
2023-04-22T11:39:13.397Z,55.61
2023-04-22T11:41:39.952Z,53.71
2023-04-22T11:44:06.356Z,53.86
2023-04-22T11:46:32.920Z,53.13
2023-04-22T11:48:59.432Z,52.29
2023-04-22T11:51:25.915Z,52.41
2023-04-22T11:53:52.341Z,52.55
2023-04-22T11:56:18.748Z,52.47
2023-04-22T11:58:45.165Z,52.21
2023-04-22T12:01:11.659Z,52.06
2023-04-22T12:03:38.293Z,51.22
2023-04-22T12:06:05.083Z,51.42
2023-04-22T12:08:31.635Z,52.14
2023-04-22T12:10:58.151Z,52.25
2023-04-22T12:13:24.542Z,52.87
2023-04-22T12:15:51.215Z,54.13
2023-04-22T12:18:17.767Z,54.01
2023-04-22T12:20:45.396Z,53.88
2023-04-22T12:23:11.776Z,53.63
2023-04-22T12:25:38.232Z,53.79
2023-04-22T12:28:04.732Z,53.94
2023-04-22T12:30:31.148Z,54.35
2023-04-22T12:32:57.573Z,54.75
2023-04-22T12:35:24.033Z,55.75
2023-04-22T12:37:50.707Z,55.30
2023-04-22T12:40:18.286Z,55.29
2023-04-22T12:42:44.694Z,55.59
2023-04-22T12:45:11.089Z,57.98
2023-04-22T12:47:37.728Z,58.53
2023-04-22T12:50:04.210Z,58.66
2023-04-22T12:52:33.738Z,58.79
2023-04-22T12:55:00.157Z,59.02
2023-04-22T12:57:26.548Z,57.86
2023-04-22T12:59:52.949Z,59.46
2023-04-22T13:02:19.413Z,59.93
2023-04-22T13:04:45.819Z,59.61
2023-04-22T13:07:12.265Z,58.88
2023-04-22T13:09:38.863Z,58.79
2023-04-22T13:12:05.448Z,60.14
2023-04-22T13:14:32.009Z,59.24
2023-04-22T13:16:58.434Z,58.92
2023-04-22T13:19:37.496Z,58.25
2023-04-22T13:22:04.305Z,57.93
2023-04-22T13:24:31.085Z,57.55
2023-04-22T13:26:57.508Z,57.01
2023-04-22T13:29:23.898Z,57.42
2023-04-22T13:31:55.775Z,56.89
2023-04-22T13:34:30.112Z,56.73
2023-04-22T13:36:56.502Z,57.14
2023-04-22T13:39:22.866Z,56.52
2023-04-22T13:41:52.027Z,55.54
2023-04-22T13:44:18.646Z,55.74
2023-04-22T13:46:45.064Z,56.11
2023-04-22T13:49:11.549Z,54.59
2023-04-22T13:51:37.968Z,54.07
2023-04-22T13:54:04.457Z,53.48
2023-04-22T13:56:33.474Z,53.76
2023-04-22T13:59:00.297Z,53.73
2023-04-22T14:01:26.878Z,53.99
2023-04-22T14:03:53.675Z,53.72
2023-04-22T14:06:20.164Z,54.50
2023-04-22T14:08:48.036Z,54.96
2023-04-22T14:11:14.468Z,55.15
2023-04-22T14:13:40.946Z,56.01
2023-04-22T14:16:09.269Z,55.40
2023-04-22T14:18:36.416Z,56.29
2023-04-22T14:21:02.931Z,55.32
2023-04-22T14:23:29.565Z,56.17
2023-04-22T14:25:56.077Z,57.09
2023-04-22T14:28:22.516Z,56.26
2023-04-22T14:30:48.936Z,57.62
2023-04-22T14:33:15.702Z,58.04
2023-04-22T14:35:42.115Z,58.11
2023-04-22T14:38:08.570Z,58.02
2023-04-22T14:40:35.012Z,57.93
2023-04-22T14:43:03.801Z,59.36
2023-04-22T14:45:30.413Z,59.40
2023-04-22T14:47:57.201Z,59.15
2023-04-22T14:50:23.641Z,59.44
2023-04-22T14:52:50.045Z,60.74
2023-04-22T14:55:23.734Z,59.83
2023-04-22T14:57:50.997Z,61.18
2023-04-22T15:00:17.508Z,60.71
2023-04-22T15:02:44.069Z,59.83
2023-04-22T15:05:10.635Z,58.85
2023-04-22T15:07:37.082Z,57.55
2023-04-22T15:10:03.467Z,57.90
2023-04-22T15:12:31.448Z,56.93
2023-04-22T15:14:57.907Z,55.22
2023-04-22T15:17:24.351Z,54.45
2023-04-22T15:19:56.373Z,54.32
2023-04-22T15:22:22.817Z,54.31
2023-04-22T15:24:49.385Z,54.50
2023-04-22T15:27:16.470Z,53.93
2023-04-22T15:29:43.232Z,53.76
2023-04-22T15:32:09.600Z,52.63
2023-04-22T15:34:35.996Z,49.44
2023-04-22T15:37:02.436Z,47.40
2023-04-22T15:39:31.508Z,47.15
2023-04-22T15:41:57.916Z,47.23
2023-04-22T15:44:24.396Z,46.75
2023-04-22T15:46:50.835Z,46.90
2023-04-22T15:49:17.474Z,47.95
2023-04-22T15:51:43.897Z,48.34
2023-04-22T15:54:10.414Z,48.55
2023-04-22T15:56:37.086Z,48.39
2023-04-22T15:59:03.755Z,48.19
2023-04-22T16:01:30.228Z,49.26
2023-04-22T16:03:56.841Z,50.03
2023-04-22T16:06:23.521Z,49.94
2023-04-22T16:08:49.965Z,50.79
2023-04-22T16:11:16.458Z,51.20
2023-04-22T16:13:42.874Z,51.41
2023-04-22T16:16:09.305Z,52.24
2023-04-22T16:18:35.811Z,52.42
2023-04-22T16:21:02.279Z,52.16
2023-04-22T16:23:28.666Z,52.85
2023-04-22T16:25:55.089Z,53.00
2023-04-22T16:28:21.455Z,53.13
2023-04-22T16:30:47.860Z,52.91
2023-04-22T16:33:14.273Z,53.67
2023-04-22T16:35:40.890Z,53.46
2023-04-22T16:38:07.349Z,53.53
2023-04-22T16:40:33.748Z,53.87
2023-04-22T16:43:00.528Z,53.15
2023-04-22T16:45:27.086Z,55.56
2023-04-22T16:47:53.595Z,54.42
2023-04-22T16:50:20.098Z,53.77
2023-04-22T16:52:46.569Z,53.93
2023-04-22T16:55:12.974Z,53.40
2023-04-22T16:57:39.375Z,53.77
2023-04-22T17:00:05.798Z,53.62
2023-04-22T17:02:32.440Z,53.95
2023-04-22T17:04:59.293Z,53.38
2023-04-22T17:07:25.836Z,53.74
2023-04-22T17:09:52.340Z,53.86
2023-04-22T17:12:18.799Z,55.98
2023-04-22T17:14:45.273Z,55.08
2023-04-22T17:17:11.742Z,55.94
2023-04-22T17:19:38.294Z,55.27
2023-04-22T17:22:06.750Z,54.91
2023-04-22T17:24:33.229Z,54.55
2023-04-22T17:26:59.647Z,55.30
2023-04-22T17:29:26.516Z,55.56
2023-04-22T17:31:53.217Z,56.43
2023-04-22T17:34:19.806Z,56.30
2023-04-22T17:36:46.258Z,56.76
2023-04-22T17:39:12.751Z,56.37
2023-04-22T17:41:39.346Z,57.26
2023-04-22T17:44:08.677Z,57.60
2023-04-22T17:46:35.107Z,57.52
2023-04-22T17:49:01.722Z,57.57
2023-04-22T17:51:28.164Z,59.19
2023-04-22T17:53:54.982Z,59.49
2023-04-22T17:56:21.434Z,60.73
2023-04-22T17:58:47.844Z,61.12
2023-04-22T18:01:14.470Z,60.09
2023-04-22T18:03:41.383Z,59.79
2023-04-22T18:06:08.375Z,59.81
2023-04-22T18:08:34.769Z,60.59
2023-04-22T18:11:01.194Z,60.82
2023-04-22T18:13:28.161Z,59.35
2023-04-22T18:18:35.371Z,60.34
2023-04-22T18:21:01.925Z,60.51
2023-04-22T18:23:28.591Z,60.08
2023-04-22T18:25:55.036Z,59.22
2023-04-22T18:28:21.565Z,60.43
2023-04-22T18:30:50.823Z,60.07
2023-04-22T18:33:17.577Z,61.11
2023-04-22T18:35:43.988Z,60.79
2023-04-22T18:38:10.396Z,60.74
2023-04-22T18:40:37.089Z,59.53
2023-04-22T18:43:03.676Z,60.16
2023-04-22T18:45:30.479Z,58.48
2023-04-22T18:47:56.968Z,58.45
2023-04-22T18:50:26.961Z,56.32
2023-04-22T18:52:53.571Z,56.52
2023-04-22T18:55:20.184Z,55.82
2023-04-22T18:57:46.632Z,53.89
2023-04-22T19:00:13.480Z,51.13
2023-04-22T19:02:42.380Z,50.91
2023-04-22T19:05:09.625Z,50.31
2023-04-22T19:07:36.068Z,49.10
2023-04-22T19:10:06.665Z,48.47
2023-04-22T19:12:33.372Z,48.90
2023-04-22T19:15:00.358Z,48.60
2023-04-22T19:17:26.998Z,48.97
2023-04-22T19:19:53.727Z,47.03
2023-04-22T19:22:22.944Z,47.21
2023-04-22T19:24:52.454Z,46.71
2023-04-22T19:27:20.954Z,47.16
2023-04-22T19:29:49.764Z,47.17
2023-04-22T19:32:16.156Z,46.85
2023-04-22T19:34:42.723Z,46.42
2023-04-22T19:37:09.201Z,47.13
2023-04-22T19:39:40.217Z,47.05
2023-04-22T19:42:08.222Z,46.35
2023-04-22T19:44:36.555Z,46.54
2023-04-22T19:47:05.976Z,46.95
2023-04-22T19:49:32.564Z,46.29
2023-04-22T19:51:59.365Z,46.11
2023-04-22T19:54:25.855Z,45.55
2023-04-22T19:56:52.634Z,46.34
2023-04-22T19:59:19.180Z,46.03
2023-04-22T20:01:45.826Z,46.47
2023-04-22T20:04:12.426Z,46.38
2023-04-22T20:06:39.141Z,46.72
2023-04-22T20:09:05.826Z,46.81
2023-04-22T20:11:32.451Z,46.31
2023-04-22T20:13:58.937Z,46.77
2023-04-22T20:16:25.707Z,46.35
2023-04-22T20:18:52.489Z,46.66
2023-04-22T20:21:22.300Z,46.89
2023-04-22T20:23:48.998Z,47.36
2023-04-22T20:26:17.313Z,46.80
2023-04-22T20:28:43.950Z,46.99
2023-04-22T20:31:10.504Z,47.04
2023-04-22T20:33:38.994Z,47.39
2023-04-22T20:36:05.830Z,47.26
2023-04-22T20:38:35.417Z,47.93
2023-04-22T20:41:02.056Z,47.81
2023-04-22T20:43:35.604Z,48.11
2023-04-22T20:46:04.238Z,47.94
2023-04-22T20:48:31.440Z,47.82
2023-04-22T20:50:58.181Z,47.90
2023-04-22T20:53:36.554Z,47.29
2023-04-22T20:56:03.339Z,47.55
2023-04-22T20:58:31.059Z,48.05
2023-04-22T21:01:00.791Z,48.44
2023-04-22T21:03:27.592Z,48.18
2023-04-22T21:05:54.449Z,49.00
2023-04-22T21:08:21.011Z,48.92
2023-04-22T21:10:47.794Z,48.82
2023-04-22T21:13:14.321Z,49.07
2023-04-22T21:15:49.152Z,49.21
2023-04-22T21:18:15.731Z,49.17
2023-04-22T21:20:42.694Z,50.13
2023-04-22T21:23:15.184Z,49.70
2023-04-22T21:25:48.413Z,49.82
2023-04-22T21:28:15.248Z,50.38
2023-04-22T21:30:41.943Z,50.30
2023-04-22T21:33:08.926Z,51.52
2023-04-22T21:35:35.491Z,51.44
2023-04-22T21:38:02.153Z,51.71
2023-04-22T21:40:28.797Z,52.29
2023-04-22T21:42:55.536Z,52.60
2023-04-22T21:45:22.322Z,52.74
2023-04-22T21:47:52.405Z,53.09
2023-04-22T21:50:20.783Z,54.34
2023-04-22T21:52:47.419Z,54.86
2023-04-22T21:55:14.091Z,54.99
2023-04-22T21:57:40.903Z,56.89
2023-04-22T22:00:07.379Z,57.76
2023-04-22T22:02:33.883Z,57.97
2023-04-22T22:05:00.445Z,58.49
2023-04-22T22:10:25.608Z,60.00
2023-04-22T22:12:52.303Z,60.82
2023-04-22T22:17:59.196Z,61.51
2023-04-22T22:20:31.519Z,62.03
2023-04-22T22:22:57.928Z,62.58
2023-04-22T22:25:25.706Z,62.93
2023-04-22T22:27:52.304Z,62.82
2023-04-22T22:30:18.699Z,64.78
2023-04-22T22:32:45.204Z,65.92
2023-04-22T22:35:11.598Z,65.82
2023-04-22T22:37:38.151Z,66.07
2023-04-22T22:40:04.592Z,67.23
2023-04-22T22:42:33.571Z,67.61
2023-04-22T22:45:00.211Z,67.42
2023-04-22T22:47:27.648Z,68.34
2023-04-22T22:49:54.370Z,67.92
2023-04-22T22:52:20.811Z,68.46
2023-04-22T22:54:50.483Z,68.97
2023-04-22T22:57:16.897Z,68.87
2023-04-22T22:59:43.309Z,68.65
2023-04-22T23:02:09.911Z,68.45
2023-04-22T23:04:39.585Z,68.18
2023-04-22T23:07:06.316Z,68.31
2023-04-22T23:09:39.157Z,68.12
2023-04-22T23:12:05.545Z,68.14
2023-04-22T23:14:41.781Z,68.18
2023-04-22T23:17:08.702Z,68.09
2023-04-22T23:19:35.168Z,67.70
2023-04-22T23:22:01.597Z,67.57
2023-04-22T23:24:28.028Z,66.50
2023-04-22T23:26:59.347Z,67.58
2023-04-22T23:29:26.362Z,67.46
2023-04-22T23:31:52.752Z,67.43
2023-04-22T23:34:19.246Z,67.25
2023-04-22T23:36:52.667Z,68.29
2023-04-22T23:39:19.102Z,67.79
2023-04-22T23:41:45.528Z,67.73
2023-04-22T23:44:12.244Z,68.83
2023-04-22T23:46:38.753Z,67.15
2023-04-22T23:49:05.183Z,68.22
2023-04-22T23:51:31.567Z,68.00
2023-04-22T23:53:57.983Z,68.99
2023-04-22T23:56:24.482Z,68.41
2023-04-22T23:58:50.857Z,68.01
